Dundalk, Canada
Current Conditions -  °F | °C
As of 11:00 PM on Sunday 23 Nov 2014 (Local Time) from CYBN Reporting Station
Few Clouds Few Clouds  
Wind Chill: 41°   Ceiling: Unl
Heat Index: 45°   Visibility: 9mi
Dew Point: 41°   Wind: 7mph
Humidity: 87%   Direction: 130°SE
Pressure: 29.59"   Gusts: NA
Location:  44.17°N, 80.38°W
Report Text: CYBN 240400Z AUTO 13006KT 9SM FEW068 FEW085 07/05 A2959 RMKSLP026
Loading
Personal Weather Stations






























Interactive Weather Map New forecast layout! Learn more

10-Day Weather Forecast

Advertisements
Track Severe Weather on mobile